Time;durP1;ratioP1;P1;durP2;ratioP2;P2;SDS_P1;SDS_P2;PMS_P1;PMS_P2;Temp;Humidity;BMP_temperature;BMP_pressure;BME280_temperature;BME280_humidity;BME280_pressure;Samples;Min_cycle;Max_cycle;Signal;HPM_P1;HPM_P2
2022/01/22 00:01:09;;;;;;;2.20;1.00;;;;;;;-2.70;100.00;99518.58;103785;1300;24310;-28
2022/01/22 00:03:35;;;;;;;4.90;2.10;;;;;;;-2.64;100.00;99517.83;103644;1300;24290;-26
2022/01/22 00:06:00;;;;;;;5.30;2.00;;;;;;;-2.61;100.00;99518.30;103570;1300;24327;-26
2022/01/22 00:08:26;;;;;;;2.70;1.20;;;;;;;-2.54;100.00;99513.77;103504;1300;22987;-31
2022/01/22 00:10:52;;;;;;;2.70;1.50;;;;;;;-2.39;100.00;99507.80;103528;1300;24213;-26
2022/01/22 00:15:45;;;;;;;5.30;1.10;;;;;;;-2.29;100.00;99506.70;103576;1302;22638;-25
2022/01/22 00:18:10;;;;;;;8.70;1.40;;;;;;;-2.29;100.00;99503.95;103569;1300;24216;-26
2022/01/22 00:20:37;;;;;;;5.00;1.00;;;;;;;-2.32;100.00;99504.83;103578;1300;24315;-29
2022/01/22 00:23:03;;;;;;;6.60;1.40;;;;;;;-2.33;100.00;99503.30;103564;1300;24364;-28
2022/01/22 00:25:29;;;;;;;7.00;2.30;;;;;;;-2.33;100.00;99502.95;103565;1300;24337;-31
2022/01/22 00:27:55;;;;;;;12.00;5.60;;;;;;;-2.34;99.95;99503.90;103525;1300;24247;-25
2022/01/22 00:30:23;;;;;;;14.40;6.00;;;;;;;-2.27;99.84;99506.58;103521;1300;24161;-29
2022/01/22 00:32:50;;;;;;;15.50;4.90;;;;;;;-2.24;99.45;99509.31;103530;1302;24687;-25
2022/01/22 00:35:16;;;;;;;8.60;3.10;;;;;;;-2.31;99.00;99515.48;103611;1300;24385;-25
2022/01/22 00:37:43;;;;;;;3.30;1.30;;;;;;;-2.30;99.10;99515.35;103523;1301;24272;-26
2022/01/22 00:40:10;;;;;;;6.90;0.90;;;;;;;-2.29;99.12;99518.13;103548;1300;24218;-28
2022/01/22 00:42:38;;;;;;;3.30;1.10;;;;;;;-2.30;99.38;99527.84;103595;1302;24225;-25
2022/01/22 00:45:04;;;;;;;7.10;1.30;;;;;;;-2.32;99.41;99526.37;103537;1300;22788;-31
2022/01/22 00:47:30;;;;;;;2.40;1.00;;;;;;;-2.28;99.00;99524.71;103534;1300;24252;-28
2022/01/22 00:49:55;;;;;;;2.70;1.00;;;;;;;-2.28;98.99;99526.29;103556;1300;24372;-31
2022/01/22 00:52:21;;;;;;;2.10;0.70;;;;;;;-2.28;98.75;99523.30;103491;1300;22512;-29
2022/01/22 00:54:47;;;;;;;2.40;0.70;;;;;;;-2.26;98.75;99525.40;103546;1302;24374;-25
2022/01/22 00:57:12;;;;;;;2.60;1.10;;;;;;;-2.20;98.70;99527.27;103534;1300;24222;-27
2022/01/22 00:59:38;;;;;;;2.50;1.10;;;;;;;-2.22;98.51;99525.33;103573;1300;24230;-31
2022/01/22 01:02:04;;;;;;;2.70;0.80;;;;;;;-2.22;98.56;99526.92;103633;1300;24186;-28
2022/01/22 01:04:34;;;;;;;2.80;1.10;;;;;;;-2.25;98.70;99525.52;103550;1302;24312;-26
2022/01/22 01:07:00;;;;;;;0.90;0.50;;;;;;;-2.20;98.56;99520.59;103638;1300;24320;-25
2022/01/22 01:09:25;;;;;;;7.00;1.00;;;;;;;-2.21;98.21;99524.02;103582;1300;22749;-25
2022/01/22 01:11:56;;;;;;;2.80;0.90;;;;;;;-2.19;98.07;99521.63;103596;1300;22638;-29
2022/01/22 01:14:30;;;;;;;4.20;0.90;;;;;;;-2.29;98.62;99521.09;103614;1300;24492;-26
2022/01/22 01:34:22;;;;;;;6.50;1.90;;;;;;;-2.09;97.63;99476.66;103549;1300;24371;-29
2022/01/22 01:36:48;;;;;;;2.60;1.90;;;;;;;-2.10;97.19;99471.63;103546;1300;24288;-29
2022/01/22 01:39:19;;;;;;;3.20;0.80;;;;;;;-2.09;96.42;99463.35;103550;1300;24278;-27
2022/01/22 01:44:15;;;;;;;4.40;1.80;;;;;;;-2.31;96.83;99454.40;103545;1302;22781;-25
2022/01/22 01:46:45;;;;;;;4.60;2.60;;;;;;;-2.33;96.61;99457.52;103554;1300;24300;-29
2022/01/22 01:49:11;;;;;;;3.00;1.40;;;;;;;-2.44;96.77;99463.14;103631;1300;24332;-26
2022/01/22 01:51:37;;;;;;;4.40;1.80;;;;;;;-2.68;97.32;99463.45;103580;1300;24244;-25
2022/01/22 01:54:23;;;;;;;6.10;1.80;;;;;;;-2.75;97.86;99469.68;103490;1302;24233;-25
2022/01/22 01:59:20;;;;;;;2.90;1.20;;;;;;;-2.81;98.08;99477.70;103716;1300;22743;-29
2022/01/22 02:01:45;;;;;;;6.00;2.10;;;;;;;-2.83;97.93;99471.50;103557;1300;24331;-26
2022/01/22 02:04:13;;;;;;;2.30;1.00;;;;;;;-2.84;98.48;99478.54;103568;1300;24320;-29
2022/01/22 02:06:39;;;;;;;3.30;1.60;;;;;;;-2.92;98.03;99488.95;103542;1300;24174;-29
2022/01/22 02:09:07;;;;;;;5.20;1.80;;;;;;;-3.01;97.49;99497.52;103517;1302;24189;-27
2022/01/22 02:11:35;;;;;;;9.10;2.50;;;;;;;-3.09;97.10;99499.10;103514;1300;24140;-27
2022/01/22 02:23:58;;;;;;;4.90;1.80;;;;;;;-3.07;97.40;99506.66;103654;1300;22526;-26
2022/01/22 02:26:24;;;;;;;2.10;0.90;;;;;;;-3.07;97.15;99507.88;103537;1302;24223;-27
2022/01/22 02:28:52;;;;;;;2.80;1.20;;;;;;;-3.00;97.56;99501.11;103529;1300;24266;-28
2022/01/22 02:31:28;;;;;;;5.10;2.30;;;;;;;-2.91;97.85;99513.07;103491;1302;24259;-26
2022/01/22 02:36:29;;;;;;;6.10;2.20;;;;;;;-2.69;97.66;99493.45;103540;1300;24228;-26
2022/01/22 02:41:23;;;;;;;17.70;3.80;;;;;;;-2.79;96.86;99488.77;103445;1300;24274;-29
2022/01/22 02:43:49;;;;;;;6.10;3.20;;;;;;;-2.95;97.13;99495.52;103570;1300;24233;-31
2022/01/22 02:46:17;;;;;;;7.30;2.90;;;;;;;-3.04;96.99;99499.14;103483;1300;24356;-28
2022/01/22 02:48:43;;;;;;;8.90;3.20;;;;;;;-3.22;97.12;99495.30;103580;1300;22511;-25
2022/01/22 02:51:09;;;;;;;8.20;3.20;;;;;;;-3.33;97.60;99501.50;103542;1300;22728;-25
2022/01/22 02:53:35;;;;;;;6.70;3.40;;;;;;;-3.38;97.77;99506.16;103543;1300;24230;-27
2022/01/22 02:56:01;;;;;;;4.60;3.80;;;;;;;-3.36;97.83;99516.41;103561;1301;24221;-27
2022/01/22 02:58:27;;;;;;;8.30;3.00;;;;;;;-3.43;97.83;99516.70;103631;1300;24148;-26
2022/01/22 03:00:53;;;;;;;6.50;3.50;;;;;;;-3.40;97.62;99510.72;103562;1301;24290;-29
2022/01/22 03:03:18;;;;;;;6.70;3.00;;;;;;;-3.51;97.42;99505.70;103466;1300;24260;-28
2022/01/22 03:05:44;;;;;;;4.40;2.50;;;;;;;-3.59;97.77;99508.17;103556;1300;24396;-28
2022/01/22 03:08:11;;;;;;;5.30;2.30;;;;;;;-3.61;97.98;99503.36;103591;1300;24276;-25
2022/01/22 03:10:38;;;;;;;5.80;2.00;;;;;;;-3.64;98.45;99503.45;103490;1300;22515;-25
2022/01/22 03:13:18;;;;;;;5.00;2.60;;;;;;;-3.68;98.34;99501.45;103631;1300;22641;-25
2022/01/22 03:18:20;;;;;;;5.50;2.30;;;;;;;-3.65;98.37;99509.67;103558;1300;22523;-25
2022/01/22 03:27:19;;;;;;;4.20;2.60;;;;;;;-3.50;98.48;99513.14;103539;1299;24125;-29
2022/01/22 03:28:30;;;;;;;7.70;2.60;;;;;;;-3.31;98.58;99514.27;103556;1302;24199;-29
2022/01/22 03:30:56;;;;;;;7.30;3.10;;;;;;;-3.29;98.61;99515.52;103588;1300;24348;-25
2022/01/22 03:33:24;;;;;;;9.70;4.40;;;;;;;-3.32;98.30;99518.02;103529;1300;24249;-27
2022/01/22 03:35:55;;;;;;;4.90;3.40;;;;;;;-3.38;97.98;99519.52;103504;1300;22846;-25
2022/01/22 03:38:22;;;;;;;8.40;3.50;;;;;;;-3.50;97.74;99525.77;103519;1301;24175;-29
2022/01/22 03:40:49;;;;;;;11.80;4.10;;;;;;;-3.61;97.75;99526.34;103544;1300;24233;-30
2022/01/22 03:43:17;;;;;;;5.80;3.60;;;;;;;-3.72;97.58;99533.67;103462;1300;24313;-30
2022/01/22 03:45:43;;;;;;;10.90;5.50;;;;;;;-3.79;97.51;99529.27;103555;1302;24225;-27
2022/01/22 03:48:09;;;;;;;9.40;4.50;;;;;;;-3.90;97.55;99531.04;103551;1300;24211;-29
2022/01/22 03:50:34;;;;;;;7.00;3.30;;;;;;;-4.05;97.46;99529.05;103546;1300;24305;-26
2022/01/22 03:53:00;;;;;;;8.80;4.20;;;;;;;-4.13;97.97;99534.48;103503;1300;24254;-27
2022/01/22 03:55:43;;;;;;;3.70;2.80;;;;;;;-4.23;97.69;99530.77;103534;1300;24416;-29
2022/01/22 03:58:10;;;;;;;3.80;2.70;;;;;;;-4.31;97.71;99538.45;103551;1300;24200;-29
2022/01/22 04:00:36;;;;;;;6.10;2.50;;;;;;;-4.39;97.61;99543.52;103519;1300;24316;-29
2022/01/22 04:05:32;;;;;;;10.40;3.20;;;;;;;-4.57;97.48;99557.65;103559;1300;24359;-29
2022/01/22 04:10:27;;;;;;;6.60;3.70;;;;;;;-4.72;97.37;99560.30;102936;1300;796143;-28
2022/01/22 04:13:00;;;;;;;7.00;3.60;;;;;;;-4.82;97.30;99559.15;103496;1300;24201;-30
2022/01/22 04:15:29;;;;;;;3.90;2.70;;;;;;;-4.92;97.70;99560.29;103561;1300;22526;-27
2022/01/22 04:25:26;;;;;;;5.70;3.50;;;;;;;-4.99;99.48;99582.95;103534;1301;22506;-29
2022/01/22 04:27:53;;;;;;;8.30;4.00;;;;;;;-4.87;99.97;99579.75;103561;1300;24213;-26
2022/01/22 04:30:21;;;;;;;6.80;4.30;;;;;;;-4.74;99.33;99583.48;103548;1300;24506;-29
2022/01/22 04:32:47;;;;;;;9.10;4.60;;;;;;;-4.69;98.69;99589.80;103517;1300;22511;-25
2022/01/22 04:35:12;;;;;;;8.80;3.90;;;;;;;-4.71;98.40;99593.20;103563;1300;24342;-25
2022/01/22 04:37:38;;;;;;;5.20;4.20;;;;;;;-4.58;98.56;99600.11;103589;1300;24339;-28
2022/01/22 04:40:06;;;;;;;10.30;5.60;;;;;;;-4.55;98.81;99604.49;103636;1300;24270;-27
2022/01/22 04:42:34;;;;;;;4.80;3.00;;;;;;;-4.47;98.82;99605.19;103495;1302;24207;-29
2022/01/22 04:45:09;;;;;;;5.90;3.70;;;;;;;-4.33;99.91;99603.11;103575;1300;24197;-30
2022/01/22 04:52:41;;;;;;;7.80;3.90;;;;;;;-4.09;99.60;99611.67;103565;1301;24297;-28
2022/01/22 04:55:08;;;;;;;4.50;2.80;;;;;;;-4.12;98.94;99611.00;103554;1300;24353;-30
2022/01/22 04:57:36;;;;;;;4.80;2.70;;;;;;;-4.22;98.83;99612.52;103492;1302;22980;-27
2022/01/22 05:00:05;;;;;;;7.70;3.80;;;;;;;-4.22;98.71;99622.88;103533;1299;24202;-29
2022/01/22 05:02:31;;;;;;;7.80;4.20;;;;;;;-4.35;98.74;99630.68;103482;1302;24218;-25
2022/01/22 05:04:56;;;;;;;5.30;3.90;;;;;;;-4.42;98.83;99633.55;103543;1300;24304;-25
2022/01/22 05:07:23;;;;;;;6.90;4.40;;;;;;;-4.51;98.55;99634.44;103501;1300;25363;-25
2022/01/22 05:09:48;;;;;;;3.60;2.70;;;;;;;-4.60;97.99;99638.02;103584;1300;22768;-26
2022/01/22 05:12:14;;;;;;;9.30;5.10;;;;;;;-4.72;97.82;99646.77;103500;1299;24225;-26
2022/01/22 05:14:40;;;;;;;7.90;4.80;;;;;;;-4.78;97.34;99650.62;103521;1302;24193;-25
2022/01/22 05:17:07;;;;;;;9.40;4.80;;;;;;;-4.94;96.85;99653.30;103487;1300;24231;-29
2022/01/22 05:19:45;;;;;;;4.60;3.40;;;;;;;-5.18;96.53;99661.56;103583;1300;24188;-27
2022/01/22 05:22:31;;;;;;;6.90;5.10;;;;;;;-5.40;96.78;99670.34;103554;1301;24169;-25
2022/01/22 05:25:02;;;;;;;9.10;4.30;;;;;;;-5.57;96.64;99675.71;103569;1300;24252;-26
2022/01/22 05:27:50;;;;;;;9.50;5.60;;;;;;;-5.69;96.49;99683.35;103539;1300;24266;-30
2022/01/22 05:30:48;;;;;;;9.60;5.20;;;;;;;-5.96;97.32;99692.60;103605;1300;24424;-25
2022/01/22 05:33:15;;;;;;;16.10;8.40;;;;;;;-6.02;97.83;99697.09;103521;1300;24447;-29
2022/01/22 05:38:14;;;;;;;23.70;7.50;;;;;;;-6.09;97.70;99701.30;103608;1300;24388;-29
2022/01/22 05:40:40;;;;;;;17.80;6.70;;;;;;;-6.28;97.62;99702.86;103479;1300;24226;-29
2022/01/22 05:43:06;;;;;;;3.90;2.80;;;;;;;-6.47;98.15;99707.88;103510;1300;24193;-30
2022/01/22 05:45:32;;;;;;;16.20;3.90;;;;;;;-6.58;98.34;99715.10;103575;1300;24348;-26
2022/01/22 05:47:57;;;;;;;16.60;5.70;;;;;;;-6.75;98.46;99715.61;103516;1300;24302;-29
2022/01/22 05:50:29;;;;;;;6.00;3.20;;;;;;;-6.88;98.23;99720.27;103475;1302;22502;-29
2022/01/22 05:53:00;;;;;;;6.40;3.60;;;;;;;-6.98;98.02;99722.42;103549;1300;24234;-26
2022/01/22 06:00:21;;;;;;;8.10;3.00;;;;;;;-7.15;98.75;99726.70;103537;1300;24196;-25
2022/01/22 06:02:46;;;;;;;6.70;3.00;;;;;;;-7.20;99.06;99726.59;103485;1302;24237;-29
2022/01/22 06:05:12;;;;;;;6.80;3.20;;;;;;;-7.20;99.19;99729.58;103537;1300;22534;-27
2022/01/22 06:07:38;;;;;;;18.70;4.40;;;;;;;-7.16;99.51;99734.63;103497;1300;24157;-30
2022/01/22 06:10:15;;;;;;;18.60;6.40;;;;;;;-7.15;99.42;99738.71;103446;1300;24322;-27
2022/01/22 06:12:47;;;;;;;14.90;4.80;;;;;;;-7.12;99.37;99741.73;103466;1300;24464;-30
2022/01/22 06:15:12;;;;;;;21.40;6.50;;;;;;;-7.07;99.55;99747.89;103537;1302;24243;-30
2022/01/22 06:17:38;;;;;;;26.60;4.60;;;;;;;-6.96;99.89;99752.55;103559;1301;24335;-28
2022/01/22 06:20:05;;;;;;;14.60;5.20;;;;;;;-6.90;100.00;99756.95;103625;1300;24358;-26
2022/01/22 06:22:31;;;;;;;19.70;7.10;;;;;;;-6.92;99.88;99760.75;103519;1303;24236;-27
2022/01/22 06:24:57;;;;;;;12.90;5.70;;;;;;;-6.96;99.40;99767.02;103551;1300;25351;-26
2022/01/22 06:27:23;;;;;;;19.70;7.40;;;;;;;-7.02;99.09;99773.06;103620;1300;24330;-25
2022/01/22 06:29:49;;;;;;;18.60;5.00;;;;;;;-7.07;99.27;99775.88;103672;1300;24209;-28
2022/01/22 06:32:15;;;;;;;22.30;7.20;;;;;;;-7.06;99.29;99779.52;103564;1300;24367;-27
2022/01/22 06:34:41;;;;;;;19.10;7.40;;;;;;;-6.99;99.57;99782.13;103536;1300;24170;-28
2022/01/22 06:37:07;;;;;;;7.00;3.20;;;;;;;-6.98;99.77;99790.41;103583;1300;24203;-28
2022/01/22 06:39:41;;;;;;;20.90;7.40;;;;;;;-6.93;99.75;99793.49;103489;1300;24289;-29
2022/01/22 06:42:08;;;;;;;12.50;6.90;;;;;;;-6.92;99.82;99797.47;103601;1300;22515;-27
2022/01/22 06:44:34;;;;;;;17.00;6.70;;;;;;;-6.96;99.80;99800.77;103600;1300;24294;-28
2022/01/22 06:47:01;;;;;;;23.20;8.20;;;;;;;-6.99;99.53;99803.36;103578;1300;24288;-25
2022/01/22 06:49:26;;;;;;;20.20;6.80;;;;;;;-6.99;99.49;99803.92;103586;1300;24266;-25
2022/01/22 06:51:54;;;;;;;17.30;5.90;;;;;;;-6.98;99.72;99807.67;103602;1300;24316;-29
2022/01/22 06:54:21;;;;;;;21.60;8.80;;;;;;;-6.96;99.78;99808.98;103593;1300;24193;-25
2022/01/22 06:56:47;;;;;;;21.80;7.50;;;;;;;-6.97;99.76;99813.17;103570;1300;24471;-25
2022/01/22 06:59:13;;;;;;;16.90;7.20;;;;;;;-6.93;99.85;99815.60;103567;1300;24301;-29
2022/01/22 07:01:39;;;;;;;21.50;6.70;;;;;;;-6.89;99.86;99820.77;103667;1300;24195;-29
2022/01/22 07:04:05;;;;;;;29.10;8.20;;;;;;;-6.85;99.91;99823.35;103639;1300;24348;-25
2022/01/22 07:06:31;;;;;;;27.90;6.20;;;;;;;-6.76;100.00;99821.88;103536;1300;24467;-30
2022/01/22 07:08:57;;;;;;;17.10;6.70;;;;;;;-6.68;100.00;99824.42;103572;1300;22616;-27
2022/01/22 07:11:22;;;;;;;26.80;7.50;;;;;;;-6.65;100.00;99827.79;103525;1300;22779;-25
2022/01/22 07:13:48;;;;;;;18.80;8.10;;;;;;;-6.64;99.97;99822.49;103553;1299;24342;-30
2022/01/22 07:16:14;;;;;;;10.70;5.50;;;;;;;-6.64;99.94;99831.39;103608;1300;24181;-25
2022/01/22 07:18:40;;;;;;;14.60;6.80;;;;;;;-6.65;99.87;99833.15;103551;1300;24189;-28
2022/01/22 07:21:14;;;;;;;16.50;6.50;;;;;;;-6.62;99.70;99837.53;103590;1300;24325;-29
2022/01/22 07:24:07;;;;;;;13.10;5.20;;;;;;;-6.61;99.44;99842.21;103742;1300;24172;-30
2022/01/22 07:26:27;;;;;;;19.60;7.40;;;;;;;-6.59;99.57;99850.84;103568;1300;24305;-26
2022/01/22 07:28:52;;;;;;;19.20;7.50;;;;;;;-6.51;99.45;99856.35;103539;1300;24298;-26
2022/01/22 07:31:20;;;;;;;22.30;6.70;;;;;;;-6.47;99.62;99860.30;103598;1300;24293;-25
2022/01/22 07:33:47;;;;;;;25.60;6.90;;;;;;;-6.36;99.62;99862.39;103496;1300;24184;-25
2022/01/22 07:36:13;;;;;;;14.40;7.20;;;;;;;-6.30;99.58;99862.93;103546;1300;24176;-25
2022/01/22 07:38:39;;;;;;;24.10;7.70;;;;;;;-6.29;99.36;99865.18;103610;1300;24249;-31
2022/01/22 07:41:07;;;;;;;11.60;6.10;;;;;;;-6.30;99.43;99868.52;103597;1300;24314;-30
2022/01/22 07:43:34;;;;;;;17.00;7.50;;;;;;;-6.26;99.31;99868.33;103692;1300;24338;-31
2022/01/22 07:46:00;;;;;;;16.10;7.50;;;;;;;-6.24;99.09;99874.98;103575;1300;24207;-29
2022/01/22 07:48:26;;;;;;;17.10;6.40;;;;;;;-6.21;99.06;99881.14;103665;1300;24314;-29
2022/01/22 07:50:52;;;;;;;13.10;5.80;;;;;;;-6.09;98.71;99885.73;103583;1302;22836;-29
2022/01/22 07:53:17;;;;;;;21.60;9.70;;;;;;;-6.04;99.05;99890.85;103756;1300;24294;-25
2022/01/22 07:55:43;;;;;;;20.70;7.80;;;;;;;-5.97;98.93;99893.64;103676;1300;24322;-28
2022/01/22 07:58:11;;;;;;;14.30;7.00;;;;;;;-5.84;99.28;99893.45;103681;1300;24320;-29
2022/01/22 08:00:38;;;;;;;17.20;7.80;;;;;;;-5.67;99.28;99896.38;103724;1297;24358;-26
2022/01/22 08:03:06;;;;;;;21.30;6.80;;;;;;;-5.50;99.28;99898.10;104111;1300;24239;-30
2022/01/22 08:05:32;;;;;;;23.40;6.60;;;;;;;-5.33;99.40;99900.50;103564;1300;22535;-29
2022/01/22 08:07:57;;;;;;;10.60;4.50;;;;;;;-5.14;99.34;99904.02;103622;1299;24249;-25
2022/01/22 08:10:23;;;;;;;9.30;4.90;;;;;;;-4.98;98.80;99903.29;103605;1300;24172;-29
2022/01/22 08:12:50;;;;;;;14.80;6.30;;;;;;;-4.88;98.36;99904.65;103621;1300;24377;-26
2022/01/22 08:15:16;;;;;;;11.90;5.00;;;;;;;-4.70;98.37;99907.12;103563;1300;24181;-31
2022/01/22 08:17:43;;;;;;;14.40;4.70;;;;;;;-4.44;98.21;99911.21;103611;1300;23142;-30
2022/01/22 08:20:11;;;;;;;10.40;4.10;;;;;;;-4.33;97.35;99908.46;103568;1300;24246;-27
2022/01/22 08:22:37;;;;;;;14.30;5.50;;;;;;;-4.21;97.01;99919.79;103475;1302;23885;-31
2022/01/22 08:25:04;;;;;;;26.20;8.30;;;;;;;-4.07;96.12;99923.04;103542;1300;24173;-26
2022/01/22 08:29:56;;;;;;;9.90;5.00;;;;;;;-4.09;95.00;99920.67;103532;1300;24212;-26
2022/01/22 08:37:20;;;;;;;5.80;2.90;;;;;;;-3.69;95.40;99935.44;103530;1302;24319;-30
2022/01/22 08:39:46;;;;;;;18.50;7.60;;;;;;;-3.52;94.77;99943.16;103529;1300;24163;-26
2022/01/22 08:42:12;;;;;;;14.90;6.90;;;;;;;-3.48;94.16;99943.11;103550;1299;22583;-29
2022/01/22 08:44:40;;;;;;;20.10;6.60;;;;;;;-3.41;93.78;99943.88;103534;1300;24252;-29
2022/01/22 08:47:06;;;;;;;16.00;6.50;;;;;;;-3.34;92.94;99954.66;103574;1300;24178;-30
2022/01/22 08:49:32;;;;;;;21.00;6.90;;;;;;;-3.29;92.82;99960.84;103449;1300;24233;-25
2022/01/22 08:51:57;;;;;;;21.70;7.10;;;;;;;-3.22;92.55;99957.45;103602;1300;24242;-25
2022/01/22 08:54:23;;;;;;;23.10;7.80;;;;;;;-3.23;92.12;99966.09;103579;1300;22753;-26
2022/01/22 08:56:49;;;;;;;19.60;7.30;;;;;;;-3.09;91.73;99965.52;103680;1300;24185;-28
2022/01/22 08:59:15;;;;;;;14.00;5.70;;;;;;;-3.08;91.54;99970.05;103560;1301;24431;-31
2022/01/22 09:01:42;;;;;;;21.10;7.10;;;;;;;-3.00;91.43;99967.29;103554;1300;24409;-28
2022/01/22 09:04:08;;;;;;;19.70;5.10;;;;;;;-2.89;90.63;99971.12;103602;1300;24297;-29
2022/01/22 09:06:34;;;;;;;14.30;6.40;;;;;;;-2.76;90.32;99969.42;103560;1302;24273;-30
2022/01/22 09:09:09;;;;;;;12.50;6.60;;;;;;;-2.73;90.17;99984.14;103521;1300;23856;-30
2022/01/22 09:11:35;;;;;;;17.00;7.30;;;;;;;-2.69;90.39;99987.55;103535;1302;22535;-30
2022/01/22 09:14:01;;;;;;;12.90;4.80;;;;;;;-2.55;90.51;99992.10;103527;1302;24407;-26
2022/01/22 09:16:27;;;;;;;11.70;4.30;;;;;;;-2.44;90.22;99993.13;103505;1302;24330;-27
2022/01/22 09:18:54;;;;;;;7.70;5.00;;;;;;;-2.29;90.21;99999.54;103524;1300;24303;-26
2022/01/22 09:21:20;;;;;;;12.20;5.10;;;;;;;-2.27;89.18;100002.58;103464;1301;24207;-31
2022/01/22 09:23:46;;;;;;;14.30;5.20;;;;;;;-2.15;88.96;100011.44;103538;1300;24404;-26
2022/01/22 09:26:12;;;;;;;10.10;4.00;;;;;;;-2.10;88.59;100009.65;103510;1300;22498;-25
2022/01/22 09:28:38;;;;;;;10.10;4.50;;;;;;;-2.05;88.02;100015.14;103554;1300;22870;-31
2022/01/22 09:31:04;;;;;;;12.90;4.60;;;;;;;-1.94;87.95;100021.42;103521;1300;24176;-29
2022/01/22 09:33:29;;;;;;;11.20;6.20;;;;;;;-1.93;87.36;100018.69;103675;1302;24242;-28
2022/01/22 09:35:55;;;;;;;14.40;3.90;;;;;;;-1.89;86.97;100023.70;103673;1299;24330;-30
2022/01/22 09:38:21;;;;;;;13.20;4.20;;;;;;;-1.85;86.42;100028.23;103548;1302;24269;-29
2022/01/22 09:40:47;;;;;;;11.90;5.10;;;;;;;-1.99;86.08;100026.29;103498;1300;24224;-25
2022/01/22 09:43:12;;;;;;;15.60;4.00;;;;;;;-2.05;86.00;100029.52;103530;1300;22625;-29
2022/01/22 09:45:39;;;;;;;17.80;5.00;;;;;;;-2.10;86.40;100033.89;103544;1300;24183;-28
2022/01/22 09:48:05;;;;;;;8.80;3.90;;;;;;;-2.07;85.85;100043.85;103546;1302;24254;-25
2022/01/22 09:50:31;;;;;;;9.40;4.10;;;;;;;-2.10;84.83;100045.66;103594;1300;24230;-25
2022/01/22 09:52:57;;;;;;;14.00;4.40;;;;;;;-2.08;85.04;100053.80;103545;1302;24261;-27
2022/01/22 09:55:22;;;;;;;14.00;4.60;;;;;;;-2.11;85.10;100054.85;103547;1302;24175;-29
2022/01/22 09:57:49;;;;;;;8.80;4.40;;;;;;;-2.02;84.87;100052.52;103472;1301;24430;-25
2022/01/22 10:00:15;;;;;;;8.30;3.60;;;;;;;-1.82;85.64;100055.40;103472;1302;24321;-25
2022/01/22 10:02:45;;;;;;;8.50;3.90;;;;;;;-1.66;84.58;100051.69;103575;1300;24509;-27
2022/01/22 10:05:17;;;;;;;15.50;5.20;;;;;;;-1.58;83.89;100052.02;103555;1300;24355;-26
2022/01/22 10:07:51;;;;;;;10.20;4.10;;;;;;;-1.47;82.99;100052.16;103536;1302;25363;-26
2022/01/22 10:10:17;;;;;;;16.50;6.20;;;;;;;-1.24;82.44;100055.19;103461;1300;24372;-26
2022/01/22 10:12:46;;;;;;;13.60;4.60;;;;;;;-1.21;81.18;100057.95;103536;1302;22642;-30
2022/01/22 10:15:12;;;;;;;8.60;3.90;;;;;;;-1.15;80.99;100055.96;103587;1300;24237;-26
2022/01/22 10:17:39;;;;;;;13.40;4.20;;;;;;;-1.08;81.68;100056.33;103629;1302;24187;-26
2022/01/22 10:20:13;;;;;;;10.70;4.80;;;;;;;-0.96;80.47;100064.10;103490;1301;24407;-25
2022/01/22 10:22:43;;;;;;;13.10;3.60;;;;;;;-0.98;79.61;100071.31;103499;1302;24293;-26
2022/01/22 10:25:19;;;;;;;16.00;4.00;;;;;;;-1.02;78.88;100074.34;103556;1300;24180;-26
2022/01/22 10:27:55;;;;;;;9.60;4.50;;;;;;;-1.06;79.95;100074.69;103645;1302;24275;-28
2022/01/22 10:30:21;;;;;;;10.20;5.60;;;;;;;-0.97;79.90;100077.54;103606;1301;22752;-26
2022/01/22 10:35:15;;;;;;;9.40;3.40;;;;;;;-0.95;78.63;100087.58;103493;1302;24217;-26
2022/01/22 10:37:42;;;;;;;12.00;4.00;;;;;;;-0.99;78.90;100087.20;103565;1300;24242;-30
2022/01/22 10:40:14;;;;;;;9.40;4.00;;;;;;;-1.06;79.18;100087.30;103525;1302;24342;-28
2022/01/22 10:42:40;;;;;;;5.40;3.30;;;;;;;-1.17;79.11;100086.84;103578;1302;24989;-29
2022/01/22 10:45:09;;;;;;;10.20;3.80;;;;;;;-1.15;79.52;100089.15;103517;1300;24230;-25
2022/01/22 10:47:34;;;;;;;9.20;3.10;;;;;;;-1.17;79.13;100091.05;103505;1300;24494;-26
2022/01/22 10:50:07;;;;;;;11.90;3.30;;;;;;;-1.15;79.19;100090.06;103496;1300;24217;-29
2022/01/22 10:52:40;;;;;;;12.50;4.10;;;;;;;-1.18;79.39;100091.47;103637;1301;22515;-26
2022/01/22 10:55:06;;;;;;;7.60;3.20;;;;;;;-1.33;79.63;100100.42;103514;1301;26310;-29
2022/01/22 10:57:31;;;;;;;5.90;2.80;;;;;;;-1.24;79.29;100097.67;103554;1302;24252;-25
2022/01/22 10:59:58;;;;;;;3.50;1.60;;;;;;;-1.28;78.97;100104.48;103565;1300;24251;-31
2022/01/22 11:02:31;;;;;;;8.60;2.40;;;;;;;-1.29;79.47;100114.40;103558;1302;24203;-31
2022/01/22 11:04:56;;;;;;;5.20;2.40;;;;;;;-1.30;79.64;100116.02;103483;1302;24331;-26
2022/01/22 11:07:23;;;;;;;7.10;3.50;;;;;;;-1.35;79.61;100115.52;103924;1301;24186;-25
2022/01/22 11:09:49;;;;;;;5.20;3.10;;;;;;;-1.35;79.65;100122.52;103808;1302;23993;-25
2022/01/22 11:12:16;;;;;;;12.60;3.30;;;;;;;-1.30;79.66;100126.95;103908;1302;24343;-29
2022/01/22 11:14:42;;;;;;;6.80;2.60;;;;;;;-1.37;79.07;100127.56;103767;1302;24197;-29
2022/01/22 11:17:08;;;;;;;4.10;2.20;;;;;;;-1.31;79.12;100128.73;103586;1302;24461;-27
2022/01/22 11:19:35;;;;;;;6.40;2.30;;;;;;;-1.25;78.81;100129.92;103524;1300;24253;-25
2022/01/22 11:22:03;;;;;;;5.10;2.20;;;;;;;-1.22;79.06;100130.91;103559;1300;22646;-31
2022/01/22 11:24:29;;;;;;;8.80;3.30;;;;;;;-1.19;78.84;100131.11;103486;1302;24257;-29
2022/01/22 11:26:58;;;;;;;5.60;2.00;;;;;;;-1.20;78.66;100135.01;103469;1302;24348;-29
2022/01/22 11:29:27;;;;;;;2.90;1.40;;;;;;;-1.28;78.84;100137.35;103571;1301;26206;-29
2022/01/22 11:31:53;;;;;;;6.50;3.00;;;;;;;-1.32;78.70;100137.41;103490;1302;24383;-29
2022/01/22 11:34:20;;;;;;;5.70;2.50;;;;;;;-1.28;78.35;100141.54;103544;1300;25544;-29
2022/01/22 11:36:53;;;;;;;5.50;2.10;;;;;;;-1.36;78.57;100144.90;103597;1302;24234;-25
2022/01/22 11:39:20;;;;;;;8.60;2.60;;;;;;;-1.40;78.62;100147.05;103604;1300;22524;-25
2022/01/22 11:41:51;;;;;;;12.50;3.90;;;;;;;-1.33;78.39;100154.52;103566;1302;22524;-29
2022/01/22 11:44:24;;;;;;;9.10;3.20;;;;;;;-1.35;78.57;100156.91;103564;1300;23962;-29
2022/01/22 11:46:58;;;;;;;5.10;3.10;;;;;;;-1.35;78.31;100161.66;103537;1302;24229;-29
2022/01/22 11:49:26;;;;;;;6.50;2.30;;;;;;;-1.38;78.24;100158.05;103551;1301;24191;-29
2022/01/22 11:51:54;;;;;;;7.00;3.50;;;;;;;-1.43;78.15;100163.98;103671;1298;24293;-29
2022/01/22 11:54:22;;;;;;;13.80;3.00;;;;;;;-1.42;78.32;100172.28;103540;1302;24247;-25
2022/01/22 11:56:50;;;;;;;10.00;3.40;;;;;;;-1.35;78.23;100175.90;103553;1302;22735;-26
2022/01/22 11:59:18;;;;;;;11.00;3.20;;;;;;;-1.32;78.31;100176.56;103519;1300;24362;-25
2022/01/22 12:01:51;;;;;;;7.40;3.40;;;;;;;-1.31;78.28;100183.02;103530;1302;24229;-29
2022/01/22 12:04:19;;;;;;;3.00;2.20;;;;;;;-1.38;78.26;100185.41;103509;1301;26031;-25
2022/01/22 12:06:52;;;;;;;6.70;2.70;;;;;;;-1.34;78.42;100193.23;103545;1302;22962;-31
2022/01/22 12:09:25;;;;;;;4.50;2.40;;;;;;;-1.36;78.72;100197.74;102936;1300;966435;-29
2022/01/22 12:14:29;;;;;;;3.30;2.20;;;;;;;-1.31;78.53;100205.34;103702;1302;22576;-32
2022/01/22 12:16:59;;;;;;;5.30;2.60;;;;;;;-1.34;78.16;100205.01;103594;1302;23960;-25
2022/01/22 12:19:32;;;;;;;7.00;3.00;;;;;;;-1.31;78.02;100209.17;103560;1302;24264;-30
2022/01/22 12:21:58;;;;;;;6.60;2.80;;;;;;;-1.36;78.18;100211.10;103675;1300;24225;-31
2022/01/22 12:24:31;;;;;;;9.20;3.20;;;;;;;-1.41;78.53;100216.89;103598;1302;24325;-25
2022/01/22 12:27:01;;;;;;;4.90;1.90;;;;;;;-1.39;78.30;100218.11;103537;1300;24288;-26
2022/01/22 12:29:29;;;;;;;10.60;3.80;;;;;;;-1.50;78.60;100217.45;103511;1302;24329;-24
2022/01/22 12:32:01;;;;;;;3.70;2.10;;;;;;;-1.44;78.64;100220.36;103464;1299;22516;-27
2022/01/22 12:34:34;;;;;;;6.00;2.00;;;;;;;-1.50;78.39;100222.16;103540;1300;24357;-27
2022/01/22 12:37:16;;;;;;;3.70;2.10;;;;;;;-1.47;78.39;100224.61;103600;1302;22787;-28
2022/01/22 12:39:44;;;;;;;4.80;2.30;;;;;;;-1.56;79.01;100228.41;103533;1300;25329;-27
2022/01/22 12:42:12;;;;;;;7.10;2.50;;;;;;;-1.54;79.02;100230.70;103481;1300;24195;-29
2022/01/22 12:44:46;;;;;;;4.00;1.40;;;;;;;-1.58;78.29;100235.55;103526;1300;25355;-29
2022/01/22 12:47:12;;;;;;;8.10;3.20;;;;;;;-1.45;77.62;100235.02;103524;1302;24256;-29